Aérodrome :
LOGIN :

S'inscrire | Disclaimer

   EN    FR    IT 

 










Légende :    VFR   VFR Marginal   IFR   IFR Intensif   IFR Très Intensif
Visi : 
Plafond : 
>= 8 km
>= 3000ft
5 à 8 km
1000 à 3000 ft
1500m à 5 km
500 à 1000 ft
800 à 1500m
200 à 500 ft
< 800m
< 200 ft
Symboles :   Orages  Brouillard  Fortes neiges  Fortes précipitations  Vent > 20 kt
SIGMETs :   Divers  Orages  Givrage  Turbulence  Onde Orograph.  Cendres Volcan.







- Altitude de l'aérodrome : 295 ft
- Code IATA : BWE


EDVE - Braunschweig

DERNIER METAR :
  • 181050Z 11005KT 1200 BR BKN003 14/14 Q1015

METARs EXPIRÉS :
  • 181020Z 11005KT 080V160 1900 BR OVC001 13/13 Q1015
  • 180950Z 13005KT 110V170 0800 0750E R26/1000VP2000U FG BKN001 13/13 Q1015
  • 180920Z 11006KT 080V140 0650 0500E R26/0550V0900D FG BKN001 OVC003 13/13 Q1016
  • 180850Z 09005KT 0400 0300E R26/0350V0600D FG SCT001 BKN003 12/12 Q1016
  • 180820Z 10005KT 4000 0800E R08/P2000D PRFG BR SCT003 11/11 Q1016

TAF AMD TAF EDVE
Valide du 18 à 10h jusqu'au 18 à 18h UTC


181050Z 1810/1818 11005KT 1200 BR BKN003
BECMG 1811/1814 8000 FEW020
Pas de NOTAMs connus pour ce terrain.



MET'MAP, la Météo Aéronautique d'un coup d'oeil ! - Copyright ORBIFLY Décembre 2007 - Disclaimer

ORBIFLY MET'MAP TEAM :

Programmation & Développement : Alexandra Zaïnal
Conception & Développement : Baudouin d'Aumeries
Co-Programmation & Développement : Marc-Olivier Méhu
Soutien technique & logistique : Manuel Goepfert

Contact : metmap@orbifly.com




SOURCES & CREDITS :

   NOAA